Ana Sayfa
METAR-TAF:

METAR-TAF

Havaalanları :

Şakirpaşa Havalimanı

Adana, Türkiye

Enlem: 36-59N, Boylam: 035-18E, yükseklik: 20 m

Güncel hava durumu gözlemi

Rapor saat 15:20 UTC de 43 dakika önce yapıldı.
Rüzgar batı/güneybatıdan 4 kt
Sıcaklık 17°C
Nem 42%
Basınç 1020 hPa
Görüş mesafesi 10 km veya daha fazla
1500 m altında bulut yok ve kümülonimbus yok

METAR: LTAF 181520Z 25004KT CAVOK 17/04 Q1020 NOSIG RMK RWY23 25004KT

Saat: 19:03 (16:03 UTC)


TAF: eksik

4.000'den fazla havaalanı için hava durumu gözlemleri ve tahminleri (METAR ve TAF raporları).

Kullanılabilir istasyonlar harita üzerinde sarı ve kırmızı noktalarla gösterilir.

İstasyonun adını görmek için fareyi noktanın üzerinde gezdirin.

Sonrasında hava gözlem ve tahminlerini görmek için tıklayın.

Haritayı değiştirmek için: yaklaştırmak için siyah artı işaretli yeşil düğmeye ve uzaklaştırmak için de eksi işaretli düğmeye hızla tıklayın; bitişik haritalar için yeşil okları kullanın.


METAR-TAF: